Pays
Station

 

Conditions  météo  pour  Battle Creek, Kellogg Airport  -  Etats-Unis    Etats-Unis

  
-7 °C
    
 
 

METAR pour Battle Creek, Kellogg Airport :

KBTL 140553Z AUTO 36016G24KT 10SM OVC013 M07/M09 A2967 RMK AO2 SNE28 SLP059 P0000 60001 T10721094 11056 21072 51068

 

Voici le bulletin pour Battle Creek, Kellogg Airport - Etats-Unis.
 
Le bulletin a été fait il y a 18 minutes, à 05:53 UTC .
Le vent soufflait à la vitesse de 8.2 mètres par seconde avec des rafales jusqu'à 12.3 mètres par seconde de Nord (360°).
 
La température était de -7 °C, avec un point de rosée à -9 °C.
La température ressentie était de -15 °C.
 
La pression atmosphérique était de 1005 hPa.
L'humidité relative était de 85.6%.
 
Le ciel était nuageux à partir d'une hauteur de 396 mètres
 
La visibilité globale était de 16.1 kilomètres.
 

 
 
 

Pays :   A   B   C   D   E   F   G   H   I   J   K   L   M   N   O   P   Q   R   S   T   U   V   W   Y   Z

 

Partenaires :  Info Météo avec Met'info
Météo Marine avec MeteoMarine.net
Infos Site  |  Infos Légales  |  Crédits  |  Confidentialité
Contactez-nous  |  Ajouter aux favoris
© 2013-2017 METAR - Tous droits réservés